createdAt,value
2023-02-15T00:00:38.322Z,0.22
2023-02-15T00:08:22.656Z,-0.02
2023-02-15T00:12:11.673Z,-0.17
2023-02-15T00:16:00.960Z,-0.27
2023-02-15T00:31:45.285Z,-0.67
2023-02-15T00:35:34.153Z,-0.78
2023-02-15T00:39:16.378Z,-0.91
2023-02-15T00:43:17.353Z,-1.02
2023-02-15T00:47:07.810Z,-1.09
2023-02-15T00:50:56.678Z,-1.15
2023-02-15T00:54:45.622Z,-1.24
2023-02-15T00:58:35.037Z,-1.29
2023-02-15T01:02:23.678Z,-1.37
2023-02-15T01:06:12.675Z,-1.43
2023-02-15T01:10:01.406Z,-1.45
2023-02-15T01:13:49.244Z,-1.50
2023-02-15T01:17:38.449Z,-1.55
2023-02-15T01:33:34.794Z,-1.65
2023-02-15T01:37:22.468Z,-1.71
2023-02-15T01:49:15.046Z,-1.77
2023-02-15T01:53:03.960Z,-1.81
2023-02-15T01:56:52.884Z,-1.83
2023-02-15T02:00:42.048Z,-1.89
2023-02-15T02:04:46.676Z,-1.95
2023-02-15T02:20:40.147Z,-2.02
2023-02-15T02:24:29.268Z,-2.07
2023-02-15T02:28:38.361Z,-2.11
2023-02-15T02:48:27.742Z,-2.21
2023-02-15T02:52:16.675Z,-2.26
2023-02-15T02:56:05.772Z,-2.29
2023-02-15T02:59:55.985Z,-2.32
2023-02-15T03:08:18.100Z,-2.36
2023-02-15T03:12:06.715Z,-2.42
2023-02-15T03:15:54.142Z,-2.46
2023-02-15T03:28:07.023Z,-2.58
2023-02-15T03:31:56.269Z,-2.62
2023-02-15T03:35:46.077Z,-2.63
2023-02-15T03:39:47.125Z,-2.64
2023-02-15T03:43:42.223Z,-2.65
2023-02-15T03:47:40.472Z,-2.67
2023-02-15T03:51:28.605Z,-2.70
2023-02-15T04:07:04.402Z,-2.82
2023-02-15T04:10:52.598Z,-2.85
2023-02-15T04:14:40.115Z,-2.87
2023-02-15T04:18:29.108Z,-2.91
2023-02-15T04:22:45.546Z,-2.93
2023-02-15T04:26:32.906Z,-2.98
2023-02-15T04:30:22.567Z,-3.00
2023-02-15T04:34:04.342Z,-3.02
2023-02-15T04:37:53.491Z,-3.04
2023-02-15T04:41:42.517Z,-3.05
2023-02-15T04:45:31.890Z,-3.06
2023-02-15T04:49:20.911Z,-3.08
2023-02-15T04:53:09.934Z,-3.10
2023-02-15T04:56:58.962Z,-3.12
2023-02-15T05:00:48.043Z,-3.14
2023-02-15T05:04:38.037Z,-3.15
2023-02-15T05:08:26.818Z,-3.18
2023-02-15T05:12:15.969Z,-3.20
2023-02-15T05:16:06.113Z,-3.23
2023-02-15T05:19:54.125Z,-3.25
2023-02-15T05:23:45.262Z,-3.26
2023-02-15T05:27:34.139Z,-3.29
2023-02-15T05:31:23.844Z,-3.31
2023-02-15T05:35:14.396Z,-3.32
2023-02-15T05:38:39.727Z,-3.32
2023-02-15T05:42:11.959Z,-3.34
2023-02-15T05:45:08.042Z,-3.35
2023-02-15T05:48:13.375Z,-3.36
2023-02-15T05:51:46.182Z,-3.37
2023-02-15T05:54:36.563Z,-3.39
2023-02-15T05:57:58.600Z,-3.39
2023-02-15T06:01:44.383Z,-3.38
2023-02-15T06:05:31.170Z,-3.39
2023-02-15T06:08:39.756Z,-3.39
2023-02-15T06:12:04.775Z,-3.37
2023-02-15T06:15:38.828Z,-3.35
2023-02-15T06:18:32.939Z,-3.34
2023-02-15T06:21:57.100Z,-3.34
2023-02-15T06:25:05.888Z,-3.33
2023-02-15T06:27:36.852Z,-3.31
2023-02-15T06:31:26.052Z,-3.29
2023-02-15T06:34:38.259Z,-3.27
2023-02-15T06:37:49.126Z,-3.24
2023-02-15T06:40:21.998Z,-3.21
2023-02-15T06:43:11.718Z,-3.18
2023-02-15T06:45:43.418Z,-3.16
2023-02-15T06:48:20.857Z,-3.12
2023-02-15T06:51:41.203Z,-3.08
2023-02-15T06:55:19.111Z,-3.01
2023-02-15T06:58:01.281Z,-2.93
2023-02-15T07:01:16.142Z,-2.89
2023-02-15T07:04:20.183Z,-2.81
2023-02-15T07:07:31.796Z,-2.74
2023-02-15T07:10:31.423Z,-2.65
2023-02-15T07:14:05.580Z,-2.57
2023-02-15T07:17:36.537Z,-2.46
2023-02-15T07:21:22.900Z,-2.35
2023-02-15T07:24:23.770Z,-2.23
2023-02-15T07:27:32.813Z,-2.11
2023-02-15T07:30:41.634Z,-1.99
2023-02-15T07:34:15.051Z,-1.85
2023-02-15T07:37:01.697Z,-1.70
2023-02-15T07:39:52.561Z,-1.57
2023-02-15T07:43:04.511Z,-1.45
2023-02-15T07:46:33.723Z,-1.30
2023-02-15T07:49:56.777Z,-1.12
2023-02-15T07:53:09.403Z,-0.94
2023-02-15T07:57:04.388Z,-0.69
2023-02-15T07:59:51.479Z,-0.44
2023-02-15T08:02:31.283Z,-0.29
2023-02-15T08:06:01.083Z,-0.14
2023-02-15T08:09:50.291Z,0.08
2023-02-15T08:13:40.492Z,0.40
2023-02-15T08:17:32.443Z,0.66
2023-02-15T08:21:24.513Z,0.89
2023-02-15T08:37:02.683Z,1.60
2023-02-15T08:40:45.624Z,1.76
2023-02-15T08:44:02.523Z,1.94
2023-02-15T08:47:49.744Z,2.10
2023-02-15T08:51:09.728Z,2.29
2023-02-15T08:54:38.520Z,2.50
2023-02-15T08:58:08.974Z,2.66
2023-02-15T09:01:57.054Z,2.84
2023-02-15T09:05:46.168Z,3.04
2023-02-15T09:09:08.056Z,3.14
2023-02-15T09:12:37.410Z,3.28
2023-02-15T09:15:58.065Z,3.40
2023-02-15T09:19:37.869Z,3.51
2023-02-15T09:23:26.410Z,3.66
2023-02-15T09:26:36.436Z,3.83
2023-02-15T09:30:09.346Z,3.91
2023-02-15T09:33:56.826Z,4.04
2023-02-15T09:37:43.123Z,4.13
2023-02-15T09:41:07.091Z,4.27
2023-02-15T09:44:54.343Z,4.46
2023-02-15T09:48:49.172Z,4.60
2023-02-15T09:52:36.699Z,4.74
2023-02-15T10:00:37.393Z,5.23
2023-02-15T10:04:13.975Z,5.47
2023-02-15T10:07:59.960Z,5.73
2023-02-15T10:11:52.956Z,6.01
2023-02-15T10:19:56.709Z,6.57
2023-02-15T10:23:58.326Z,7.09
2023-02-15T10:27:27.371Z,7.75
2023-02-15T10:31:27.461Z,8.46
2023-02-15T10:57:29.225Z,11.68
2023-02-15T11:01:33.778Z,12.30
2023-02-15T11:20:39.585Z,15.41
2023-02-15T11:24:21.562Z,15.97
2023-02-15T11:28:20.097Z,16.51
2023-02-15T11:31:45.420Z,17.16
2023-02-15T11:38:20.267Z,17.53
2023-02-15T11:45:42.919Z,18.06
2023-02-15T12:38:34.590Z,20.20
2023-02-15T12:43:18.426Z,20.24
2023-02-15T12:48:10.313Z,20.81
2023-02-15T12:53:01.255Z,21.15
2023-02-15T13:55:45.506Z,20.04
2023-02-15T14:09:54.274Z,17.30
2023-02-15T14:14:35.389Z,17.35
2023-02-15T14:19:27.674Z,16.31
2023-02-15T14:52:20.302Z,10.54
2023-02-15T14:56:08.929Z,10.44
2023-02-15T15:11:45.013Z,9.90
2023-02-15T15:15:34.118Z,9.56
2023-02-15T15:19:09.262Z,9.27
2023-02-15T15:26:29.132Z,8.89
2023-02-15T15:30:20.883Z,8.67
2023-02-15T15:34:24.891Z,8.44
2023-02-15T15:42:35.632Z,7.95
2023-02-15T15:46:36.921Z,7.66
2023-02-15T15:50:07.286Z,7.38
2023-02-15T15:54:01.017Z,7.11
2023-02-15T16:18:03.156Z,5.39
2023-02-15T16:52:47.873Z,3.43
2023-02-15T16:56:37.920Z,3.25
2023-02-15T17:00:37.833Z,3.09
2023-02-15T17:16:34.465Z,2.45
2023-02-15T17:20:26.371Z,2.28
2023-02-15T17:24:00.151Z,2.15
2023-02-15T17:27:53.472Z,2.03
2023-02-15T17:44:15.170Z,1.56
2023-02-15T17:48:02.967Z,1.46
2023-02-15T17:51:23.005Z,1.37
2023-02-15T17:55:09.717Z,1.27
2023-02-15T17:58:57.665Z,1.17
2023-02-15T18:02:36.828Z,1.06
2023-02-15T18:06:23.048Z,0.97
2023-02-15T18:10:12.307Z,0.86
2023-02-15T18:17:56.306Z,0.68
2023-02-15T18:21:45.425Z,0.57
2023-02-15T18:25:35.754Z,0.50
2023-02-15T18:29:23.569Z,0.38
2023-02-15T18:33:15.252Z,0.27
2023-02-15T18:37:05.427Z,0.18
2023-02-15T18:49:01.412Z,-0.02
2023-02-15T18:52:56.649Z,-0.10
2023-02-15T18:56:45.950Z,-0.19
2023-02-15T19:00:34.818Z,-0.27
2023-02-15T19:04:28.476Z,-0.33
2023-02-15T19:08:23.270Z,-0.35
2023-02-15T19:12:12.529Z,-0.40
2023-02-15T19:16:06.220Z,-0.44
2023-02-15T19:19:28.870Z,-0.47
2023-02-15T19:22:44.025Z,-0.54
2023-02-15T19:26:02.321Z,-0.57
2023-02-15T19:37:24.020Z,-0.71
2023-02-15T20:07:48.162Z,-1.02
2023-02-15T20:11:37.576Z,-1.12
2023-02-15T20:15:27.036Z,-1.18
2023-02-15T20:19:16.843Z,-1.20
2023-02-15T20:34:58.843Z,-1.31
2023-02-15T20:38:48.410Z,-1.37
2023-02-15T20:42:37.654Z,-1.40
2023-02-15T20:46:27.224Z,-1.43
2023-02-15T20:50:18.422Z,-1.45
2023-02-15T20:54:09.064Z,-1.46
2023-02-15T20:57:38.624Z,-1.49
2023-02-15T21:01:21.153Z,-1.52
2023-02-15T21:05:10.343Z,-1.59
2023-02-15T21:08:40.659Z,-1.66
2023-02-15T21:12:29.618Z,-1.71
2023-02-15T21:16:22.179Z,-1.78
2023-02-15T21:20:14.777Z,-1.82
2023-02-15T21:24:05.897Z,-1.86
2023-02-15T21:27:56.424Z,-1.90
2023-02-15T22:02:28.690Z,-2.20
2023-02-15T22:06:20.413Z,-2.23
2023-02-15T22:10:17.860Z,-2.24
2023-02-15T22:14:16.260Z,-2.26
2023-02-15T22:26:12.324Z,-2.33
2023-02-15T22:30:01.372Z,-2.40
2023-02-15T22:33:50.385Z,-2.43
2023-02-15T22:37:39.371Z,-2.45
2023-02-15T22:41:28.714Z,-2.46
2023-02-15T22:45:17.809Z,-2.46
2023-02-15T23:04:24.498Z,-2.60
2023-02-15T23:08:13.802Z,-2.64
2023-02-15T23:12:02.990Z,-2.68
2023-02-15T23:15:51.928Z,-2.71
2023-02-15T23:19:40.878Z,-2.76
2023-02-15T23:23:29.832Z,-2.83
2023-02-15T23:27:19.433Z,-2.84
2023-02-15T23:30:51.646Z,-2.84
2023-02-15T23:34:40.724Z,-2.93
2023-02-15T23:38:30.529Z,-2.93
2023-02-15T23:57:56.506Z,-2.98
